sensor_id;sensor_type;location;lat;lon;timestamp;temperature;humidity
4107;DHT22;21906;50.812;7.132;2024-03-25T00:01:24;8.10;72.70
4107;DHT22;21906;50.812;7.132;2024-03-25T00:03:51;8.00;72.90
4107;DHT22;21906;50.812;7.132;2024-03-25T00:06:16;8.10;72.60
4107;DHT22;21906;50.812;7.132;2024-03-25T00:08:42;8.10;72.50
4107;DHT22;21906;50.812;7.132;2024-03-25T00:11:08;8.10;72.80
4107;DHT22;21906;50.812;7.132;2024-03-25T00:13:34;8.10;72.40
4107;DHT22;21906;50.812;7.132;2024-03-25T00:15:59;8.10;72.60
4107;DHT22;21906;50.812;7.132;2024-03-25T00:18:25;8.20;72.70
4107;DHT22;21906;50.812;7.132;2024-03-25T00:20:51;8.10;72.80
4107;DHT22;21906;50.812;7.132;2024-03-25T00:23:17;8.20;72.70
4107;DHT22;21906;50.812;7.132;2024-03-25T00:25:43;8.10;72.50
4107;DHT22;21906;50.812;7.132;2024-03-25T00:28:08;8.20;72.40
4107;DHT22;21906;50.812;7.132;2024-03-25T00:30:37;8.20;72.10
4107;DHT22;21906;50.812;7.132;2024-03-25T00:33:03;8.20;71.90
4107;DHT22;21906;50.812;7.132;2024-03-25T00:35:29;8.20;72.00
4107;DHT22;21906;50.812;7.132;2024-03-25T00:37:55;8.20;72.20
4107;DHT22;21906;50.812;7.132;2024-03-25T00:40:20;8.20;72.00
4107;DHT22;21906;50.812;7.132;2024-03-25T00:42:46;8.20;72.20
4107;DHT22;21906;50.812;7.132;2024-03-25T00:45:13;8.20;72.30
4107;DHT22;21906;50.812;7.132;2024-03-25T00:47:39;8.20;72.30
4107;DHT22;21906;50.812;7.132;2024-03-25T00:50:05;8.10;72.40
4107;DHT22;21906;50.812;7.132;2024-03-25T00:52:30;8.10;72.60
4107;DHT22;21906;50.812;7.132;2024-03-25T00:54:56;8.10;72.70
4107;DHT22;21906;50.812;7.132;2024-03-25T00:57:22;8.10;72.70
4107;DHT22;21906;50.812;7.132;2024-03-25T00:59:48;8.00;72.90
4107;DHT22;21906;50.812;7.132;2024-03-25T01:02:13;8.00;72.90
4107;DHT22;21906;50.812;7.132;2024-03-25T01:04:39;8.10;73.00
4107;DHT22;21906;50.812;7.132;2024-03-25T01:07:05;7.90;73.20
4107;DHT22;21906;50.812;7.132;2024-03-25T01:09:31;8.00;73.20
4107;DHT22;21906;50.812;7.132;2024-03-25T01:11:57;8.00;73.30
4107;DHT22;21906;50.812;7.132;2024-03-25T01:14:23;8.10;73.50
4107;DHT22;21906;50.812;7.132;2024-03-25T01:16:48;8.00;73.40
4107;DHT22;21906;50.812;7.132;2024-03-25T01:19:14;8.10;73.20
4107;DHT22;21906;50.812;7.132;2024-03-25T01:21:40;8.00;73.10
4107;DHT22;21906;50.812;7.132;2024-03-25T01:24:05;8.00;73.50
4107;DHT22;21906;50.812;7.132;2024-03-25T01:26:31;8.10;73.70
4107;DHT22;21906;50.812;7.132;2024-03-25T01:28:57;8.00;73.80
4107;DHT22;21906;50.812;7.132;2024-03-25T01:31:22;8.00;73.80
4107;DHT22;21906;50.812;7.132;2024-03-25T01:33:48;8.00;74.00
4107;DHT22;21906;50.812;7.132;2024-03-25T01:36:14;8.10;74.00
4107;DHT22;21906;50.812;7.132;2024-03-25T01:38:44;8.10;74.00
4107;DHT22;21906;50.812;7.132;2024-03-25T01:41:11;8.00;74.00
4107;DHT22;21906;50.812;7.132;2024-03-25T01:43:37;8.10;74.10
4107;DHT22;21906;50.812;7.132;2024-03-25T01:46:04;8.10;74.00
4107;DHT22;21906;50.812;7.132;2024-03-25T01:48:31;8.10;74.00
4107;DHT22;21906;50.812;7.132;2024-03-25T01:50:57;8.10;73.70
4107;DHT22;21906;50.812;7.132;2024-03-25T01:53:24;8.10;73.20
4107;DHT22;21906;50.812;7.132;2024-03-25T01:55:51;8.00;73.40
4107;DHT22;21906;50.812;7.132;2024-03-25T01:58:19;8.00;73.60
4107;DHT22;21906;50.812;7.132;2024-03-25T02:00:45;7.90;73.70
4107;DHT22;21906;50.812;7.132;2024-03-25T02:03:11;7.90;73.80
4107;DHT22;21906;50.812;7.132;2024-03-25T02:05:40;7.90;73.70
4107;DHT22;21906;50.812;7.132;2024-03-25T02:08:06;7.90;73.80
4107;DHT22;21906;50.812;7.132;2024-03-25T02:10:32;8.00;73.50
4107;DHT22;21906;50.812;7.132;2024-03-25T02:12:58;7.90;73.70
4107;DHT22;21906;50.812;7.132;2024-03-25T02:15:24;7.90;73.40
4107;DHT22;21906;50.812;7.132;2024-03-25T02:17:52;7.90;73.60
4107;DHT22;21906;50.812;7.132;2024-03-25T02:20:17;8.00;73.40
4107;DHT22;21906;50.812;7.132;2024-03-25T02:22:43;7.90;73.10
4107;DHT22;21906;50.812;7.132;2024-03-25T02:25:10;7.90;73.30
4107;DHT22;21906;50.812;7.132;2024-03-25T02:27:37;7.80;73.60
4107;DHT22;21906;50.812;7.132;2024-03-25T02:30:08;7.80;73.60
4107;DHT22;21906;50.812;7.132;2024-03-25T02:32:35;7.70;73.50
4107;DHT22;21906;50.812;7.132;2024-03-25T02:35:03;7.70;73.90
4107;DHT22;21906;50.812;7.132;2024-03-25T02:37:29;7.60;73.90
4107;DHT22;21906;50.812;7.132;2024-03-25T02:39:58;7.60;73.90
4107;DHT22;21906;50.812;7.132;2024-03-25T02:42:25;7.60;74.00
4107;DHT22;21906;50.812;7.132;2024-03-25T02:44:57;7.50;73.90
4107;DHT22;21906;50.812;7.132;2024-03-25T02:47:23;7.60;73.80
4107;DHT22;21906;50.812;7.132;2024-03-25T02:49:49;7.60;73.60
4107;DHT22;21906;50.812;7.132;2024-03-25T02:52:15;7.50;73.80
4107;DHT22;21906;50.812;7.132;2024-03-25T02:54:41;7.50;73.80
4107;DHT22;21906;50.812;7.132;2024-03-25T02:57:07;7.50;74.00
4107;DHT22;21906;50.812;7.132;2024-03-25T02:59:32;7.40;74.10
4107;DHT22;21906;50.812;7.132;2024-03-25T03:01:58;7.40;74.20
4107;DHT22;21906;50.812;7.132;2024-03-25T03:04:23;7.40;74.00
4107;DHT22;21906;50.812;7.132;2024-03-25T03:06:49;7.40;74.10
4107;DHT22;21906;50.812;7.132;2024-03-25T03:09:18;7.40;74.20
4107;DHT22;21906;50.812;7.132;2024-03-25T03:11:43;7.30;74.50
4107;DHT22;21906;50.812;7.132;2024-03-25T03:14:09;7.30;74.70
4107;DHT22;21906;50.812;7.132;2024-03-25T03:16:38;7.30;74.50
4107;DHT22;21906;50.812;7.132;2024-03-25T03:19:03;7.30;74.70
4107;DHT22;21906;50.812;7.132;2024-03-25T03:21:29;7.30;74.60
4107;DHT22;21906;50.812;7.132;2024-03-25T03:23:57;7.30;74.70
4107;DHT22;21906;50.812;7.132;2024-03-25T03:26:23;7.40;74.60
4107;DHT22;21906;50.812;7.132;2024-03-25T03:28:56;7.40;74.20
4107;DHT22;21906;50.812;7.132;2024-03-25T03:31:21;7.40;74.30
4107;DHT22;21906;50.812;7.132;2024-03-25T03:33:48;7.40;74.30
4107;DHT22;21906;50.812;7.132;2024-03-25T03:36:15;7.40;74.30
4107;DHT22;21906;50.812;7.132;2024-03-25T03:38:42;7.30;74.40
4107;DHT22;21906;50.812;7.132;2024-03-25T03:41:07;7.40;74.30
4107;DHT22;21906;50.812;7.132;2024-03-25T03:43:33;7.40;74.00
4107;DHT22;21906;50.812;7.132;2024-03-25T03:45:59;7.40;74.00
4107;DHT22;21906;50.812;7.132;2024-03-25T03:48:24;7.40;73.90
4107;DHT22;21906;50.812;7.132;2024-03-25T03:50:50;7.30;74.00
4107;DHT22;21906;50.812;7.132;2024-03-25T03:53:17;7.30;74.00
4107;DHT22;21906;50.812;7.132;2024-03-25T03:55:42;7.30;73.90
4107;DHT22;21906;50.812;7.132;2024-03-25T03:58:17;7.40;73.70
4107;DHT22;21906;50.812;7.132;2024-03-25T04:00:43;7.30;73.80
4107;DHT22;21906;50.812;7.132;2024-03-25T04:03:09;7.30;73.90
4107;DHT22;21906;50.812;7.132;2024-03-25T04:05:41;7.40;73.50
4107;DHT22;21906;50.812;7.132;2024-03-25T04:08:06;7.30;73.60
4107;DHT22;21906;50.812;7.132;2024-03-25T04:10:34;7.30;73.70
4107;DHT22;21906;50.812;7.132;2024-03-25T04:13:03;7.30;73.60
4107;DHT22;21906;50.812;7.132;2024-03-25T04:15:29;7.40;73.40
4107;DHT22;21906;50.812;7.132;2024-03-25T04:17:55;7.40;73.50
4107;DHT22;21906;50.812;7.132;2024-03-25T04:20:20;7.40;73.40
4107;DHT22;21906;50.812;7.132;2024-03-25T04:22:46;7.30;73.50
4107;DHT22;21906;50.812;7.132;2024-03-25T04:25:13;7.30;73.60
4107;DHT22;21906;50.812;7.132;2024-03-25T04:27:45;7.40;73.40
4107;DHT22;21906;50.812;7.132;2024-03-25T04:30:11;7.40;73.30
4107;DHT22;21906;50.812;7.132;2024-03-25T04:32:38;7.30;73.30
4107;DHT22;21906;50.812;7.132;2024-03-25T04:35:08;7.20;73.30
4107;DHT22;21906;50.812;7.132;2024-03-25T04:37:34;7.20;73.40
4107;DHT22;21906;50.812;7.132;2024-03-25T04:40:00;7.20;73.20
4107;DHT22;21906;50.812;7.132;2024-03-25T04:42:26;7.20;73.20
4107;DHT22;21906;50.812;7.132;2024-03-25T04:44:52;7.30;73.00
4107;DHT22;21906;50.812;7.132;2024-03-25T04:47:18;7.20;73.10
4107;DHT22;21906;50.812;7.132;2024-03-25T04:49:44;7.20;73.00
4107;DHT22;21906;50.812;7.132;2024-03-25T04:52:16;7.20;73.10
4107;DHT22;21906;50.812;7.132;2024-03-25T04:54:43;7.20;72.90
4107;DHT22;21906;50.812;7.132;2024-03-25T04:57:08;7.00;73.00
4107;DHT22;21906;50.812;7.132;2024-03-25T04:59:34;6.90;73.00
4107;DHT22;21906;50.812;7.132;2024-03-25T05:02:00;6.90;73.40
4107;DHT22;21906;50.812;7.132;2024-03-25T05:04:26;6.90;73.40
4107;DHT22;21906;50.812;7.132;2024-03-25T05:06:51;6.90;73.20
4107;DHT22;21906;50.812;7.132;2024-03-25T05:09:17;6.90;73.30
4107;DHT22;21906;50.812;7.132;2024-03-25T05:11:43;6.90;73.00
4107;DHT22;21906;50.812;7.132;2024-03-25T05:14:08;6.80;73.40
4107;DHT22;21906;50.812;7.132;2024-03-25T05:16:34;6.80;73.60
4107;DHT22;21906;50.812;7.132;2024-03-25T05:19:00;6.80;73.40
4107;DHT22;21906;50.812;7.132;2024-03-25T05:21:25;6.70;73.60
4107;DHT22;21906;50.812;7.132;2024-03-25T05:23:51;6.70;73.40
4107;DHT22;21906;50.812;7.132;2024-03-25T05:26:17;6.70;73.00
4107;DHT22;21906;50.812;7.132;2024-03-25T05:28:42;6.70;72.90
4107;DHT22;21906;50.812;7.132;2024-03-25T05:31:09;6.60;72.80
4107;DHT22;21906;50.812;7.132;2024-03-25T05:33:35;6.60;73.30
4107;DHT22;21906;50.812;7.132;2024-03-25T05:36:01;6.60;73.30
4107;DHT22;21906;50.812;7.132;2024-03-25T05:38:27;6.50;73.50
4107;DHT22;21906;50.812;7.132;2024-03-25T05:40:53;6.50;73.40
4107;DHT22;21906;50.812;7.132;2024-03-25T05:43:19;6.50;73.30
4107;DHT22;21906;50.812;7.132;2024-03-25T05:45:55;6.50;73.50
4107;DHT22;21906;50.812;7.132;2024-03-25T05:48:22;6.50;73.40
4107;DHT22;21906;50.812;7.132;2024-03-25T05:51:05;6.50;73.40
4107;DHT22;21906;50.812;7.132;2024-03-25T05:53:32;6.50;73.40
4107;DHT22;21906;50.812;7.132;2024-03-25T05:55:57;6.50;73.30
4107;DHT22;21906;50.812;7.132;2024-03-25T05:58:26;6.50;73.40
4107;DHT22;21906;50.812;7.132;2024-03-25T06:00:52;6.60;73.40
4107;DHT22;21906;50.812;7.132;2024-03-25T06:03:21;6.70;73.30
4107;DHT22;21906;50.812;7.132;2024-03-25T06:05:47;6.70;73.20
4107;DHT22;21906;50.812;7.132;2024-03-25T06:08:13;6.70;73.20
4107;DHT22;21906;50.812;7.132;2024-03-25T06:10:51;6.80;73.10
4107;DHT22;21906;50.812;7.132;2024-03-25T06:13:17;6.80;73.00
4107;DHT22;21906;50.812;7.132;2024-03-25T06:15:43;6.80;73.00
4107;DHT22;21906;50.812;7.132;2024-03-25T06:18:09;6.80;73.00
4107;DHT22;21906;50.812;7.132;2024-03-25T06:20:34;6.90;73.00
4107;DHT22;21906;50.812;7.132;2024-03-25T06:23:00;6.90;72.70
4107;DHT22;21906;50.812;7.132;2024-03-25T06:25:27;7.00;72.30
4107;DHT22;21906;50.812;7.132;2024-03-25T06:27:56;7.00;72.20
4107;DHT22;21906;50.812;7.132;2024-03-25T06:30:22;7.00;72.10
4107;DHT22;21906;50.812;7.132;2024-03-25T06:33:06;7.10;71.90
4107;DHT22;21906;50.812;7.132;2024-03-25T06:35:51;7.10;71.90
4107;DHT22;21906;50.812;7.132;2024-03-25T06:38:17;7.20;71.80
4107;DHT22;21906;50.812;7.132;2024-03-25T06:40:44;7.30;71.50
4107;DHT22;21906;50.812;7.132;2024-03-25T06:43:10;7.30;71.30
4107;DHT22;21906;50.812;7.132;2024-03-25T06:45:36;7.40;71.30
4107;DHT22;21906;50.812;7.132;2024-03-25T06:48:01;7.40;71.10
4107;DHT22;21906;50.812;7.132;2024-03-25T06:50:27;7.40;70.90
4107;DHT22;21906;50.812;7.132;2024-03-25T06:52:53;7.50;70.80
4107;DHT22;21906;50.812;7.132;2024-03-25T06:55:18;7.50;70.90
4107;DHT22;21906;50.812;7.132;2024-03-25T06:57:48;7.60;70.80
4107;DHT22;21906;50.812;7.132;2024-03-25T07:00:14;7.60;70.70
4107;DHT22;21906;50.812;7.132;2024-03-25T07:02:40;7.60;70.30
4107;DHT22;21906;50.812;7.132;2024-03-25T07:05:06;7.60;70.60
4107;DHT22;21906;50.812;7.132;2024-03-25T07:07:32;7.70;70.40
4107;DHT22;21906;50.812;7.132;2024-03-25T07:09:59;7.70;70.40
4107;DHT22;21906;50.812;7.132;2024-03-25T07:12:25;7.80;70.10
4107;DHT22;21906;50.812;7.132;2024-03-25T07:14:51;7.90;69.70
4107;DHT22;21906;50.812;7.132;2024-03-25T07:17:16;7.90;69.40
4107;DHT22;21906;50.812;7.132;2024-03-25T07:19:45;8.00;69.50
4107;DHT22;21906;50.812;7.132;2024-03-25T07:22:10;8.00;69.40
4107;DHT22;21906;50.812;7.132;2024-03-25T07:24:36;8.10;69.30
4107;DHT22;21906;50.812;7.132;2024-03-25T07:27:02;8.20;69.10
4107;DHT22;21906;50.812;7.132;2024-03-25T07:29:28;8.20;68.80
4107;DHT22;21906;50.812;7.132;2024-03-25T07:31:53;8.20;68.90
4107;DHT22;21906;50.812;7.132;2024-03-25T07:34:19;8.30;68.80
4107;DHT22;21906;50.812;7.132;2024-03-25T07:36:45;8.40;68.50
4107;DHT22;21906;50.812;7.132;2024-03-25T07:39:10;8.40;68.20
4107;DHT22;21906;50.812;7.132;2024-03-25T07:41:37;8.50;68.10
4107;DHT22;21906;50.812;7.132;2024-03-25T07:44:03;8.50;67.50
4107;DHT22;21906;50.812;7.132;2024-03-25T07:46:30;8.60;67.70
4107;DHT22;21906;50.812;7.132;2024-03-25T07:48:55;8.60;68.30
4107;DHT22;21906;50.812;7.132;2024-03-25T07:51:21;8.70;68.30
4107;DHT22;21906;50.812;7.132;2024-03-25T07:53:47;8.70;68.20
4107;DHT22;21906;50.812;7.132;2024-03-25T07:56:14;8.70;68.10
4107;DHT22;21906;50.812;7.132;2024-03-25T07:58:40;8.80;67.60
4107;DHT22;21906;50.812;7.132;2024-03-25T08:01:06;8.90;66.80
4107;DHT22;21906;50.812;7.132;2024-03-25T08:03:32;8.90;66.30
4107;DHT22;21906;50.812;7.132;2024-03-25T08:05:59;8.90;66.20
4107;DHT22;21906;50.812;7.132;2024-03-25T08:08:24;9.00;67.10
4107;DHT22;21906;50.812;7.132;2024-03-25T08:10:50;9.20;66.00
4107;DHT22;21906;50.812;7.132;2024-03-25T08:13:18;9.20;65.70
4107;DHT22;21906;50.812;7.132;2024-03-25T08:15:45;9.30;66.60
4107;DHT22;21906;50.812;7.132;2024-03-25T08:18:11;9.40;65.90
4107;DHT22;21906;50.812;7.132;2024-03-25T08:20:38;9.40;65.60
4107;DHT22;21906;50.812;7.132;2024-03-25T08:23:03;9.50;65.40
4107;DHT22;21906;50.812;7.132;2024-03-25T08:25:29;9.50;64.70
4107;DHT22;21906;50.812;7.132;2024-03-25T08:27:55;9.60;64.40
4107;DHT22;21906;50.812;7.132;2024-03-25T08:30:21;9.70;63.70
4107;DHT22;21906;50.812;7.132;2024-03-25T08:32:47;9.40;63.30
4107;DHT22;21906;50.812;7.132;2024-03-25T08:35:12;9.40;64.10
4107;DHT22;21906;50.812;7.132;2024-03-25T08:37:38;9.60;64.10
4107;DHT22;21906;50.812;7.132;2024-03-25T08:40:04;9.70;63.80
4107;DHT22;21906;50.812;7.132;2024-03-25T08:42:30;9.70;63.40
4107;DHT22;21906;50.812;7.132;2024-03-25T08:44:56;9.70;62.60
4107;DHT22;21906;50.812;7.132;2024-03-25T08:47:22;9.80;62.90
4107;DHT22;21906;50.812;7.132;2024-03-25T08:49:48;9.80;62.60
4107;DHT22;21906;50.812;7.132;2024-03-25T08:52:13;9.90;62.70
4107;DHT22;21906;50.812;7.132;2024-03-25T08:54:39;10.00;62.50
4107;DHT22;21906;50.812;7.132;2024-03-25T08:57:05;9.90;62.20
4107;DHT22;21906;50.812;7.132;2024-03-25T08:59:31;9.90;62.70
4107;DHT22;21906;50.812;7.132;2024-03-25T09:01:56;10.10;62.40
4107;DHT22;21906;50.812;7.132;2024-03-25T09:04:22;10.10;61.90
4107;DHT22;21906;50.812;7.132;2024-03-25T09:06:48;10.00;60.40
4107;DHT22;21906;50.812;7.132;2024-03-25T09:09:14;10.10;61.00
4107;DHT22;21906;50.812;7.132;2024-03-25T09:11:58;10.20;60.60
4107;DHT22;21906;50.812;7.132;2024-03-25T09:14:24;10.20;60.80
4107;DHT22;21906;50.812;7.132;2024-03-25T09:16:50;10.30;61.10
4107;DHT22;21906;50.812;7.132;2024-03-25T09:19:16;10.40;61.20
4107;DHT22;21906;50.812;7.132;2024-03-25T09:21:46;10.50;60.50
4107;DHT22;21906;50.812;7.132;2024-03-25T09:24:11;10.60;57.90
4107;DHT22;21906;50.812;7.132;2024-03-25T09:26:37;10.60;57.00
4107;DHT22;21906;50.812;7.132;2024-03-25T09:29:03;10.50;56.90
4107;DHT22;21906;50.812;7.132;2024-03-25T09:31:28;10.50;56.90
4107;DHT22;21906;50.812;7.132;2024-03-25T09:33:54;10.30;58.80
4107;DHT22;21906;50.812;7.132;2024-03-25T09:36:20;10.20;58.90
4107;DHT22;21906;50.812;7.132;2024-03-25T09:38:46;10.00;59.40
4107;DHT22;21906;50.812;7.132;2024-03-25T09:41:11;10.10;59.70
4107;DHT22;21906;50.812;7.132;2024-03-25T09:43:43;10.30;59.20
4107;DHT22;21906;50.812;7.132;2024-03-25T09:46:13;10.40;59.20
4107;DHT22;21906;50.812;7.132;2024-03-25T09:48:39;10.50;59.70
4107;DHT22;21906;50.812;7.132;2024-03-25T09:51:07;10.60;58.80
4107;DHT22;21906;50.812;7.132;2024-03-25T09:53:34;10.70;57.60
4107;DHT22;21906;50.812;7.132;2024-03-25T09:56:00;10.90;57.30
4107;DHT22;21906;50.812;7.132;2024-03-25T09:58:26;10.90;56.90
4107;DHT22;21906;50.812;7.132;2024-03-25T10:00:53;10.70;59.20
4107;DHT22;21906;50.812;7.132;2024-03-25T10:03:20;10.90;59.70
4107;DHT22;21906;50.812;7.132;2024-03-25T10:05:46;11.10;59.30
4107;DHT22;21906;50.812;7.132;2024-03-25T10:08:12;11.10;58.10
4107;DHT22;21906;50.812;7.132;2024-03-25T10:10:38;11.00;58.20
4107;DHT22;21906;50.812;7.132;2024-03-25T10:13:04;11.20;58.80
4107;DHT22;21906;50.812;7.132;2024-03-25T10:15:31;11.10;55.10
4107;DHT22;21906;50.812;7.132;2024-03-25T10:17:56;11.10;55.00
4107;DHT22;21906;50.812;7.132;2024-03-25T10:20:22;11.10;55.20
4107;DHT22;21906;50.812;7.132;2024-03-25T10:22:48;11.20;54.70
4107;DHT22;21906;50.812;7.132;2024-03-25T10:25:31;11.20;59.10
4107;DHT22;21906;50.812;7.132;2024-03-25T10:27:58;11.50;57.60
4107;DHT22;21906;50.812;7.132;2024-03-25T10:30:25;11.70;55.70
4107;DHT22;21906;50.812;7.132;2024-03-25T10:33:04;11.90;54.20
4107;DHT22;21906;50.812;7.132;2024-03-25T10:35:33;11.80;53.70
4107;DHT22;21906;50.812;7.132;2024-03-25T10:38:01;11.90;52.30
4107;DHT22;21906;50.812;7.132;2024-03-25T10:40:28;11.90;52.10
4107;DHT22;21906;50.812;7.132;2024-03-25T10:43:14;11.90;52.40
4107;DHT22;21906;50.812;7.132;2024-03-25T10:45:49;12.00;56.90
4107;DHT22;21906;50.812;7.132;2024-03-25T10:48:30;12.10;56.20
4107;DHT22;21906;50.812;7.132;2024-03-25T10:50:58;12.10;53.70
4107;DHT22;21906;50.812;7.132;2024-03-25T10:53:25;12.20;53.50
4107;DHT22;21906;50.812;7.132;2024-03-25T10:55:56;12.20;53.80
4107;DHT22;21906;50.812;7.132;2024-03-25T10:58:23;12.20;54.20
4107;DHT22;21906;50.812;7.132;2024-03-25T11:00:51;12.30;54.20
4107;DHT22;21906;50.812;7.132;2024-03-25T11:03:17;12.50;52.50
4107;DHT22;21906;50.812;7.132;2024-03-25T11:05:44;12.70;53.70
4107;DHT22;21906;50.812;7.132;2024-03-25T11:08:14;12.70;54.20
4107;DHT22;21906;50.812;7.132;2024-03-25T11:10:44;12.50;52.80
4107;DHT22;21906;50.812;7.132;2024-03-25T11:13:18;12.60;52.90
4107;DHT22;21906;50.812;7.132;2024-03-25T11:15:46;12.70;53.30
4107;DHT22;21906;50.812;7.132;2024-03-25T11:18:16;12.90;52.80
4107;DHT22;21906;50.812;7.132;2024-03-25T11:20:43;13.00;52.20
4107;DHT22;21906;50.812;7.132;2024-03-25T11:23:09;13.00;50.20
4107;DHT22;21906;50.812;7.132;2024-03-25T11:25:36;13.10;50.60
4107;DHT22;21906;50.812;7.132;2024-03-25T11:28:03;13.20;50.70
4107;DHT22;21906;50.812;7.132;2024-03-25T11:30:29;13.30;52.80
4107;DHT22;21906;50.812;7.132;2024-03-25T11:32:57;13.20;50.90
4107;DHT22;21906;50.812;7.132;2024-03-25T11:35:23;13.20;52.70
4107;DHT22;21906;50.812;7.132;2024-03-25T11:37:50;13.30;52.30
4107;DHT22;21906;50.812;7.132;2024-03-25T11:40:18;13.50;52.40
4107;DHT22;21906;50.812;7.132;2024-03-25T11:42:46;13.70;50.50
4107;DHT22;21906;50.812;7.132;2024-03-25T11:45:19;13.70;51.70
4107;DHT22;21906;50.812;7.132;2024-03-25T11:47:48;14.00;49.50
4107;DHT22;21906;50.812;7.132;2024-03-25T11:50:18;14.10;49.70
4107;DHT22;21906;50.812;7.132;2024-03-25T11:52:45;14.20;47.90
4107;DHT22;21906;50.812;7.132;2024-03-25T11:55:17;14.10;45.00
4107;DHT22;21906;50.812;7.132;2024-03-25T11:57:43;13.90;48.10
4107;DHT22;21906;50.812;7.132;2024-03-25T12:00:09;13.90;50.70
4107;DHT22;21906;50.812;7.132;2024-03-25T12:02:42;13.90;45.90
4107;DHT22;21906;50.812;7.132;2024-03-25T12:05:09;14.00;46.50
4107;DHT22;21906;50.812;7.132;2024-03-25T12:07:34;14.20;48.40
4107;DHT22;21906;50.812;7.132;2024-03-25T12:10:01;14.20;47.80
4107;DHT22;21906;50.812;7.132;2024-03-25T12:12:46;14.10;50.10
4107;DHT22;21906;50.812;7.132;2024-03-25T12:15:12;14.10;48.00
4107;DHT22;21906;50.812;7.132;2024-03-25T12:17:38;14.10;45.70
4107;DHT22;21906;50.812;7.132;2024-03-25T12:20:08;14.00;47.90
4107;DHT22;21906;50.812;7.132;2024-03-25T12:22:35;14.30;48.00
4107;DHT22;21906;50.812;7.132;2024-03-25T12:25:03;14.50;45.50
4107;DHT22;21906;50.812;7.132;2024-03-25T12:27:29;14.90;48.00
4107;DHT22;21906;50.812;7.132;2024-03-25T12:30:06;14.90;45.50
4107;DHT22;21906;50.812;7.132;2024-03-25T12:32:39;15.00;44.90
4107;DHT22;21906;50.812;7.132;2024-03-25T12:35:09;14.50;46.30
4107;DHT22;21906;50.812;7.132;2024-03-25T12:37:37;14.60;45.40
4107;DHT22;21906;50.812;7.132;2024-03-25T12:40:04;14.90;45.70
4107;DHT22;21906;50.812;7.132;2024-03-25T12:42:32;14.80;46.40
4107;DHT22;21906;50.812;7.132;2024-03-25T12:44:58;14.80;46.40
4107;DHT22;21906;50.812;7.132;2024-03-25T12:47:23;14.90;45.30
4107;DHT22;21906;50.812;7.132;2024-03-25T12:49:49;15.30;46.20
4107;DHT22;21906;50.812;7.132;2024-03-25T12:52:15;15.40;44.40
4107;DHT22;21906;50.812;7.132;2024-03-25T12:54:40;15.50;44.50
4107;DHT22;21906;50.812;7.132;2024-03-25T12:57:10;15.80;44.10
4107;DHT22;21906;50.812;7.132;2024-03-25T12:59:36;15.80;41.70
4107;DHT22;21906;50.812;7.132;2024-03-25T13:02:02;15.90;42.70
4107;DHT22;21906;50.812;7.132;2024-03-25T13:04:28;15.90;43.40
4107;DHT22;21906;50.812;7.132;2024-03-25T13:06:54;15.90;41.30
4107;DHT22;21906;50.812;7.132;2024-03-25T13:09:20;16.10;42.80
4107;DHT22;21906;50.812;7.132;2024-03-25T13:11:46;16.30;43.30
4107;DHT22;21906;50.812;7.132;2024-03-25T13:14:12;16.40;39.80
4107;DHT22;21906;50.812;7.132;2024-03-25T13:16:39;16.40;42.00
4107;DHT22;21906;50.812;7.132;2024-03-25T13:19:05;16.50;42.60
4107;DHT22;21906;50.812;7.132;2024-03-25T13:21:31;16.60;40.50
4107;DHT22;21906;50.812;7.132;2024-03-25T13:23:58;16.20;42.70
4107;DHT22;21906;50.812;7.132;2024-03-25T13:26:24;16.20;42.00
4107;DHT22;21906;50.812;7.132;2024-03-25T13:28:50;16.20;41.90
4107;DHT22;21906;50.812;7.132;2024-03-25T13:31:16;16.50;41.00
4107;DHT22;21906;50.812;7.132;2024-03-25T13:33:41;16.60;39.00
4107;DHT22;21906;50.812;7.132;2024-03-25T13:36:07;16.80;38.70
4107;DHT22;21906;50.812;7.132;2024-03-25T13:38:33;16.70;37.50
4107;DHT22;21906;50.812;7.132;2024-03-25T13:41:01;16.80;39.40
4107;DHT22;21906;50.812;7.132;2024-03-25T13:43:27;16.90;39.20
4107;DHT22;21906;50.812;7.132;2024-03-25T13:45:52;17.00;38.50
4107;DHT22;21906;50.812;7.132;2024-03-25T13:48:18;16.90;38.50
4107;DHT22;21906;50.812;7.132;2024-03-25T13:50:45;17.10;38.70
4107;DHT22;21906;50.812;7.132;2024-03-25T13:53:11;17.50;39.00
4107;DHT22;21906;50.812;7.132;2024-03-25T13:55:37;17.60;37.90
4107;DHT22;21906;50.812;7.132;2024-03-25T13:58:03;17.40;38.10
4107;DHT22;21906;50.812;7.132;2024-03-25T14:00:31;17.40;39.50
4107;DHT22;21906;50.812;7.132;2024-03-25T14:03:02;17.30;36.20
4107;DHT22;21906;50.812;7.132;2024-03-25T14:05:28;17.20;36.60
4107;DHT22;21906;50.812;7.132;2024-03-25T14:07:54;17.50;38.90
4107;DHT22;21906;50.812;7.132;2024-03-25T14:10:21;17.90;38.40
4107;DHT22;21906;50.812;7.132;2024-03-25T14:12:48;18.00;37.10
4107;DHT22;21906;50.812;7.132;2024-03-25T14:15:13;18.20;38.20
4107;DHT22;21906;50.812;7.132;2024-03-25T14:17:39;18.50;38.70
4107;DHT22;21906;50.812;7.132;2024-03-25T14:20:06;18.90;36.80
4107;DHT22;21906;50.812;7.132;2024-03-25T14:22:32;18.70;37.40
4107;DHT22;21906;50.812;7.132;2024-03-25T14:24:59;18.70;35.30
4107;DHT22;21906;50.812;7.132;2024-03-25T14:27:25;18.90;35.60
4107;DHT22;21906;50.812;7.132;2024-03-25T14:29:51;19.00;34.20
4107;DHT22;21906;50.812;7.132;2024-03-25T14:32:20;19.40;35.60
4107;DHT22;21906;50.812;7.132;2024-03-25T14:34:50;19.20;33.80
4107;DHT22;21906;50.812;7.132;2024-03-25T14:37:15;19.00;34.60
4107;DHT22;21906;50.812;7.132;2024-03-25T14:39:42;18.90;36.40
4107;DHT22;21906;50.812;7.132;2024-03-25T14:42:08;18.60;36.80
4107;DHT22;21906;50.812;7.132;2024-03-25T14:44:38;19.10;36.00
4107;DHT22;21906;50.812;7.132;2024-03-25T14:47:04;19.40;34.20
4107;DHT22;21906;50.812;7.132;2024-03-25T14:49:31;19.30;34.00
4107;DHT22;21906;50.812;7.132;2024-03-25T14:51:57;19.10;33.90
4107;DHT22;21906;50.812;7.132;2024-03-25T14:54:23;18.40;34.30
4107;DHT22;21906;50.812;7.132;2024-03-25T14:56:58;18.20;35.10
4107;DHT22;21906;50.812;7.132;2024-03-25T14:59:23;18.00;36.20
4107;DHT22;21906;50.812;7.132;2024-03-25T15:01:50;18.10;36.80
4107;DHT22;21906;50.812;7.132;2024-03-25T15:04:15;18.50;35.50
4107;DHT22;21906;50.812;7.132;2024-03-25T15:06:41;19.20;35.10
4107;DHT22;21906;50.812;7.132;2024-03-25T15:09:07;19.90;34.00
4107;DHT22;21906;50.812;7.132;2024-03-25T15:11:33;20.40;33.50
4107;DHT22;21906;50.812;7.132;2024-03-25T15:13:59;20.90;32.20
4107;DHT22;21906;50.812;7.132;2024-03-25T15:16:24;21.10;31.80
4107;DHT22;21906;50.812;7.132;2024-03-25T15:18:51;21.60;31.50
4107;DHT22;21906;50.812;7.132;2024-03-25T15:21:16;21.10;32.80
4107;DHT22;21906;50.812;7.132;2024-03-25T15:23:42;21.50;32.50
4107;DHT22;21906;50.812;7.132;2024-03-25T15:26:08;21.20;30.90
4107;DHT22;21906;50.812;7.132;2024-03-25T15:28:34;21.40;30.60
4107;DHT22;21906;50.812;7.132;2024-03-25T15:30:59;20.60;30.90
4107;DHT22;21906;50.812;7.132;2024-03-25T15:33:25;20.30;33.20
4107;DHT22;21906;50.812;7.132;2024-03-25T15:35:51;20.20;32.40
4107;DHT22;21906;50.812;7.132;2024-03-25T15:38:17;20.60;31.60
4107;DHT22;21906;50.812;7.132;2024-03-25T15:40:44;21.00;31.50
4107;DHT22;21906;50.812;7.132;2024-03-25T15:43:17;21.10;29.90
4107;DHT22;21906;50.812;7.132;2024-03-25T15:45:42;20.70;31.00
4107;DHT22;21906;50.812;7.132;2024-03-25T15:48:08;20.40;30.60
4107;DHT22;21906;50.812;7.132;2024-03-25T15:50:35;20.30;31.30
4107;DHT22;21906;50.812;7.132;2024-03-25T15:53:01;19.50;31.10